createdAt,value
2022-10-04T00:02:28.165Z,11.98
2022-10-04T00:05:03.198Z,11.90
2022-10-04T00:07:35.327Z,11.87
2022-10-04T00:10:08.818Z,11.87
2022-10-04T00:12:39.877Z,11.86
2022-10-04T00:15:20.043Z,11.86
2022-10-04T00:18:01.943Z,11.89
2022-10-04T00:20:57.860Z,12.02
2022-10-04T00:23:41.792Z,11.99
2022-10-04T00:26:15.992Z,11.89
2022-10-04T00:28:45.784Z,11.80
2022-10-04T00:31:19.645Z,11.85
2022-10-04T00:33:51.292Z,11.85
2022-10-04T00:36:46.966Z,11.86
2022-10-04T00:39:26.080Z,11.85
2022-10-04T00:42:02.644Z,11.85
2022-10-04T00:44:38.077Z,11.86
2022-10-04T00:47:19.929Z,11.78
2022-10-04T00:49:54.385Z,11.70
2022-10-04T00:52:26.305Z,11.73
2022-10-04T00:54:59.011Z,11.76
2022-10-04T00:57:32.151Z,11.70
2022-10-04T01:00:03.983Z,11.68
2022-10-04T01:02:39.150Z,11.59
2022-10-04T01:05:11.872Z,11.59
2022-10-04T01:07:43.464Z,11.55
2022-10-04T01:10:16.026Z,11.57
2022-10-04T01:12:50.314Z,11.60
2022-10-04T01:15:28.449Z,11.57
2022-10-04T01:18:11.203Z,11.56
2022-10-04T01:20:49.340Z,11.53
2022-10-04T01:23:33.970Z,11.53
2022-10-04T01:26:02.675Z,11.58
2022-10-04T01:28:30.375Z,11.50
2022-10-04T01:30:58.187Z,11.49
2022-10-04T01:33:26.244Z,11.41
2022-10-04T01:35:54.006Z,11.40
2022-10-04T01:38:21.770Z,11.39
2022-10-04T01:40:56.458Z,11.28
2022-10-04T01:43:30.122Z,11.30
2022-10-04T01:46:02.273Z,11.22
2022-10-04T01:48:37.599Z,11.16
2022-10-04T01:51:14.171Z,11.19
2022-10-04T01:53:48.609Z,11.24
2022-10-04T01:56:21.491Z,11.23
2022-10-04T01:58:52.309Z,11.20
2022-10-04T02:01:27.761Z,11.24
2022-10-04T02:04:00.902Z,11.36
2022-10-04T02:06:30.002Z,11.26
2022-10-04T02:08:59.211Z,11.24
2022-10-04T02:11:31.213Z,11.31
2022-10-04T02:13:59.426Z,11.34
2022-10-04T02:16:27.898Z,11.32
2022-10-04T02:18:56.473Z,11.25
2022-10-04T02:21:25.040Z,11.25
2022-10-04T02:23:53.418Z,11.21
2022-10-04T02:26:21.412Z,11.23
2022-10-04T02:28:50.772Z,11.19
2022-10-04T02:31:40.747Z,11.18
2022-10-04T02:34:09.256Z,11.12
2022-10-04T02:36:39.503Z,11.11
2022-10-04T02:39:14.142Z,11.16
2022-10-04T02:41:45.592Z,11.18
2022-10-04T02:44:18.799Z,11.33
2022-10-04T02:46:51.683Z,11.31
2022-10-04T02:49:27.545Z,11.24
2022-10-04T02:52:02.297Z,11.27
2022-10-04T02:54:37.101Z,11.32
2022-10-04T02:57:05.827Z,11.31
2022-10-04T02:59:35.618Z,11.17
2022-10-04T03:02:03.895Z,11.13
2022-10-04T03:04:34.688Z,11.12
2022-10-04T03:07:06.072Z,11.07
2022-10-04T03:09:37.058Z,11.10
2022-10-04T03:12:06.058Z,11.00
2022-10-04T03:14:35.430Z,11.00
2022-10-04T03:17:04.907Z,11.04
2022-10-04T03:19:34.384Z,11.05
2022-10-04T03:22:05.615Z,11.03
2022-10-04T03:24:36.255Z,11.05
2022-10-04T03:27:07.523Z,11.11
2022-10-04T03:29:40.882Z,11.23
2022-10-04T03:32:09.865Z,11.28
2022-10-04T03:34:39.714Z,11.24
2022-10-04T03:37:10.471Z,11.24
2022-10-04T03:39:42.359Z,11.28
2022-10-04T03:42:14.662Z,11.24
2022-10-04T03:44:45.812Z,11.20
2022-10-04T03:47:17.118Z,11.18
2022-10-04T03:49:50.635Z,11.08
2022-10-04T03:52:23.076Z,11.03
2022-10-04T03:54:53.577Z,11.01
2022-10-04T03:57:21.503Z,10.94
2022-10-04T03:59:51.023Z,10.90
2022-10-04T04:02:27.119Z,10.92
2022-10-04T04:05:04.940Z,10.87
2022-10-04T04:07:39.562Z,10.89
2022-10-04T04:10:19.335Z,10.85
2022-10-04T04:12:55.018Z,10.88
2022-10-04T04:15:28.577Z,10.90
2022-10-04T04:17:56.753Z,10.91
2022-10-04T04:20:27.228Z,10.91
2022-10-04T04:23:12.743Z,10.91
2022-10-04T04:25:43.400Z,10.77
2022-10-04T04:28:25.735Z,10.86
2022-10-04T04:30:59.156Z,10.89
2022-10-04T04:33:33.897Z,10.85
2022-10-04T04:36:06.991Z,10.87
2022-10-04T04:38:36.475Z,10.85
2022-10-04T04:41:11.305Z,10.78
2022-10-04T04:43:44.561Z,10.66
2022-10-04T04:46:27.530Z,10.63
2022-10-04T04:49:01.835Z,10.72
2022-10-04T04:51:31.448Z,10.82
2022-10-04T04:54:01.914Z,10.85
2022-10-04T04:56:31.492Z,10.85
2022-10-04T04:59:03.938Z,10.87
2022-10-04T05:01:36.224Z,10.99
2022-10-04T05:04:06.694Z,10.92
2022-10-04T05:06:36.389Z,10.91
2022-10-04T05:09:05.315Z,10.99
2022-10-04T05:11:35.588Z,11.03
2022-10-04T05:14:06.832Z,11.02
2022-10-04T05:16:41.069Z,11.05
2022-10-04T05:19:16.198Z,11.15
2022-10-04T05:21:47.700Z,11.14
2022-10-04T05:24:23.259Z,11.13
2022-10-04T05:26:52.952Z,11.08
2022-10-04T05:29:23.935Z,11.02
2022-10-04T05:32:03.381Z,11.13
2022-10-04T05:34:36.966Z,11.18
2022-10-04T05:37:22.290Z,11.24
2022-10-04T05:40:01.914Z,11.29
2022-10-04T05:42:38.529Z,11.24
2022-10-04T05:45:17.272Z,11.20
2022-10-04T05:47:47.831Z,11.09
2022-10-04T05:50:20.065Z,11.09
2022-10-04T05:52:50.967Z,11.04
2022-10-04T05:55:26.173Z,11.04
2022-10-04T05:58:19.758Z,10.99
2022-10-04T06:01:05.086Z,11.03
2022-10-04T06:03:46.547Z,10.90
2022-10-04T06:06:21.368Z,10.92
2022-10-04T06:09:09.004Z,11.00
2022-10-04T06:11:54.214Z,11.05
2022-10-04T06:14:47.696Z,11.12
2022-10-04T06:17:49.940Z,11.11
2022-10-04T06:20:50.583Z,11.17
2022-10-04T06:23:21.085Z,11.20
2022-10-04T06:25:51.944Z,11.25
2022-10-04T06:28:25.077Z,11.35
2022-10-04T06:31:25.391Z,11.37
2022-10-04T06:34:19.216Z,11.46
2022-10-04T06:37:19.878Z,11.41
2022-10-04T06:40:02.349Z,11.43
2022-10-04T06:42:48.624Z,11.43
2022-10-04T06:45:51.905Z,11.46
2022-10-04T06:48:39.794Z,11.48
2022-10-04T06:51:17.088Z,11.54
2022-10-04T06:53:58.329Z,11.54
2022-10-04T06:56:35.122Z,11.55
2022-10-04T06:59:23.066Z,11.65
2022-10-04T07:01:53.092Z,11.63
2022-10-04T07:04:45.001Z,11.62
2022-10-04T07:07:27.037Z,11.64
2022-10-04T07:10:02.558Z,11.61
2022-10-04T07:12:32.917Z,11.60
2022-10-04T07:15:04.878Z,11.55
2022-10-04T07:17:40.910Z,11.64
2022-10-04T07:20:21.372Z,11.62
2022-10-04T07:22:56.417Z,11.61
2022-10-04T07:25:30.493Z,11.69
2022-10-04T07:28:22.142Z,11.70
2022-10-04T07:30:56.740Z,11.77
2022-10-04T07:33:28.725Z,11.81
2022-10-04T07:36:04.529Z,11.88
2022-10-04T07:38:35.168Z,11.98
2022-10-04T07:41:09.290Z,12.04
2022-10-04T07:43:49.095Z,12.10
2022-10-04T07:46:24.726Z,12.02
2022-10-04T07:48:52.505Z,12.03
2022-10-04T07:51:30.871Z,12.11
2022-10-04T07:54:03.622Z,12.13
2022-10-04T07:56:42.115Z,12.17
2022-10-04T07:59:24.115Z,12.16
2022-10-04T08:02:01.916Z,12.22
2022-10-04T08:04:40.551Z,12.18
2022-10-04T08:07:18.683Z,12.16
2022-10-04T08:10:02.552Z,12.19
2022-10-04T08:12:44.242Z,12.22
2022-10-04T08:15:34.746Z,12.26
2022-10-04T08:18:11.972Z,12.19
2022-10-04T08:20:49.135Z,12.19
2022-10-04T08:23:55.667Z,12.24
2022-10-04T08:26:46.178Z,12.20
2022-10-04T08:29:44.326Z,12.36
2022-10-04T08:32:24.184Z,12.30
2022-10-04T08:35:17.063Z,12.22
2022-10-04T08:38:00.098Z,12.34
2022-10-04T08:40:52.967Z,12.54
2022-10-04T08:43:44.320Z,12.71
2022-10-04T08:46:36.417Z,12.88
2022-10-04T08:49:47.132Z,13.14
2022-10-04T08:52:38.302Z,13.41
2022-10-04T08:55:41.050Z,13.85
2022-10-04T08:58:34.122Z,14.29
2022-10-04T09:01:20.350Z,14.36
2022-10-04T09:04:23.784Z,14.41
2022-10-04T09:07:04.791Z,14.39
2022-10-04T09:09:57.675Z,14.48
2022-10-04T09:12:59.428Z,14.36
2022-10-04T09:15:44.363Z,14.13
2022-10-04T09:18:45.611Z,13.83
2022-10-04T09:21:26.865Z,13.63
2022-10-04T09:24:48.044Z,13.62
2022-10-04T09:27:55.727Z,15.08
2022-10-04T09:30:25.386Z,16.75
2022-10-04T09:33:32.538Z,19.33
2022-10-04T09:36:22.907Z,22.19
2022-10-04T09:39:29.523Z,22.46
2022-10-04T09:42:33.561Z,22.02
2022-10-04T09:45:44.933Z,22.27
2022-10-04T09:48:30.201Z,21.44
2022-10-04T09:51:31.852Z,20.20
2022-10-04T09:54:19.860Z,19.14
2022-10-04T09:57:03.359Z,18.23
2022-10-04T09:59:58.874Z,17.49
2022-10-04T10:02:56.505Z,17.01
2022-10-04T10:05:46.746Z,16.67
2022-10-04T10:08:28.236Z,16.49
2022-10-04T10:11:34.105Z,16.34
2022-10-04T10:14:26.973Z,16.21
2022-10-04T10:17:05.933Z,16.07
2022-10-04T10:20:03.458Z,15.99
2022-10-04T10:22:53.930Z,16.01
2022-10-04T10:25:40.874Z,16.04
2022-10-04T10:28:34.226Z,16.07
2022-10-04T10:31:18.689Z,15.88
2022-10-04T10:34:07.665Z,15.76
2022-10-04T10:36:49.943Z,15.77
2022-10-04T10:39:54.099Z,15.68
2022-10-04T10:42:47.726Z,16.13
2022-10-04T10:45:29.273Z,16.37
2022-10-04T10:48:01.890Z,16.55
2022-10-04T10:51:00.604Z,16.51
2022-10-04T10:53:57.166Z,16.47
2022-10-04T10:56:37.897Z,16.45
2022-10-04T10:59:27.250Z,16.54
2022-10-04T11:02:10.262Z,16.99
2022-10-04T11:04:58.349Z,17.69
2022-10-04T11:07:51.663Z,18.04
2022-10-04T11:10:59.592Z,19.02
2022-10-04T11:13:50.665Z,19.29
2022-10-04T11:16:47.502Z,19.45
2022-10-04T11:19:52.724Z,20.06
2022-10-04T11:23:02.111Z,20.31
2022-10-04T11:25:57.450Z,20.42
2022-10-04T11:28:37.085Z,20.55
2022-10-04T11:31:40.515Z,20.94
2022-10-04T11:34:27.036Z,21.60
2022-10-04T11:37:08.091Z,21.83
2022-10-04T11:40:04.199Z,21.53
2022-10-04T11:42:49.275Z,21.23
2022-10-04T11:45:44.763Z,21.34
2022-10-04T11:48:26.606Z,21.80
2022-10-04T11:51:19.425Z,21.89
2022-10-04T11:54:14.818Z,21.15
2022-10-04T11:56:56.613Z,20.41
2022-10-04T11:59:39.225Z,19.74
2022-10-04T12:02:35.716Z,19.42
2022-10-04T12:05:24.412Z,19.13
2022-10-04T12:08:10.850Z,18.78
2022-10-04T12:10:40.862Z,18.77
2022-10-04T12:13:37.964Z,18.56
2022-10-04T12:16:38.314Z,18.26
2022-10-04T12:19:40.519Z,18.14
2022-10-04T12:22:30.085Z,17.96
2022-10-04T12:25:28.529Z,17.88
2022-10-04T12:28:25.604Z,18.05
2022-10-04T12:31:12.243Z,18.52
2022-10-04T12:33:50.188Z,18.88
2022-10-04T12:36:34.097Z,19.27
2022-10-04T12:39:31.516Z,19.37
2022-10-04T12:42:12.555Z,19.16
2022-10-04T12:44:53.414Z,18.98
2022-10-04T12:47:41.695Z,18.79
2022-10-04T12:50:22.197Z,18.69
2022-10-04T12:52:55.535Z,18.62
2022-10-04T12:55:47.317Z,18.52
2022-10-04T12:58:22.970Z,18.40
2022-10-04T13:00:58.855Z,18.38
2022-10-04T13:03:41.161Z,18.29
2022-10-04T13:06:15.942Z,18.23
2022-10-04T13:08:56.500Z,18.15
2022-10-04T13:11:47.202Z,18.15
2022-10-04T13:14:46.797Z,18.12
2022-10-04T13:17:34.511Z,18.07
2022-10-04T13:20:21.034Z,18.10
2022-10-04T13:22:57.644Z,18.01
2022-10-04T13:25:53.428Z,18.05
2022-10-04T13:28:30.846Z,18.02
2022-10-04T13:31:06.820Z,18.03
2022-10-04T13:33:44.458Z,18.07
2022-10-04T13:36:19.244Z,18.06
2022-10-04T13:39:29.683Z,18.12
2022-10-04T13:42:17.615Z,18.18
2022-10-04T13:45:07.428Z,18.13
2022-10-04T13:47:48.944Z,18.21
2022-10-04T13:50:32.097Z,18.20
2022-10-04T13:53:30.557Z,18.14
2022-10-04T13:56:21.792Z,18.22
2022-10-04T13:58:58.488Z,18.21
2022-10-04T14:01:50.195Z,18.27
2022-10-04T14:04:34.774Z,18.26
2022-10-04T14:07:35.179Z,18.29
2022-10-04T14:10:18.344Z,18.27
2022-10-04T14:13:11.985Z,18.35
2022-10-04T14:15:59.240Z,18.33
2022-10-04T14:18:57.937Z,18.31
2022-10-04T14:21:54.662Z,18.28
2022-10-04T14:24:58.338Z,18.39
2022-10-04T14:27:57.095Z,18.45
2022-10-04T14:30:30.704Z,18.46
2022-10-04T14:33:40.300Z,18.53
2022-10-04T14:36:40.880Z,18.54
2022-10-04T14:39:35.805Z,18.57
2022-10-04T14:42:35.010Z,18.55
2022-10-04T14:45:25.126Z,18.60
2022-10-04T14:48:19.629Z,18.55
2022-10-04T14:50:59.351Z,18.58
2022-10-04T14:53:37.262Z,18.62
2022-10-04T14:56:28.418Z,18.66
2022-10-04T14:59:09.184Z,18.62
2022-10-04T15:01:45.574Z,18.61
2022-10-04T15:04:28.945Z,18.56
2022-10-04T15:07:00.233Z,18.62
2022-10-04T15:09:52.167Z,18.59
2022-10-04T15:12:58.558Z,18.51
2022-10-04T15:15:36.434Z,18.43
2022-10-04T15:18:10.768Z,18.37
2022-10-04T15:20:51.536Z,18.32
2022-10-04T15:23:32.043Z,18.37
2022-10-04T15:26:13.795Z,18.33
2022-10-04T15:29:01.623Z,18.26
2022-10-04T15:31:36.246Z,18.27
2022-10-04T15:34:12.684Z,18.23
2022-10-04T15:37:04.199Z,18.21
2022-10-04T15:39:58.174Z,18.22
2022-10-04T15:42:30.770Z,18.16
2022-10-04T15:45:26.949Z,18.11
2022-10-04T15:48:06.311Z,18.07
2022-10-04T15:50:38.364Z,18.09
2022-10-04T15:53:30.504Z,18.07
2022-10-04T15:56:30.391Z,18.06
2022-10-04T15:59:32.296Z,18.00
2022-10-04T16:02:36.773Z,17.95
2022-10-04T16:05:15.574Z,17.93
2022-10-04T16:08:01.473Z,17.93
2022-10-04T16:10:48.172Z,17.92
2022-10-04T16:13:37.946Z,17.86
2022-10-04T16:16:41.010Z,17.79
2022-10-04T16:19:17.796Z,17.77
2022-10-04T16:21:51.869Z,17.71
2022-10-04T16:24:51.315Z,17.64
2022-10-04T16:27:46.013Z,17.62
2022-10-04T16:30:28.147Z,17.58
2022-10-04T16:33:13.681Z,17.54
2022-10-04T16:35:44.450Z,17.49
2022-10-04T16:38:25.458Z,17.41
2022-10-04T16:41:08.717Z,17.39
2022-10-04T16:43:41.087Z,17.35
2022-10-04T16:46:23.057Z,17.33
2022-10-04T16:48:57.125Z,17.25
2022-10-04T16:51:55.053Z,17.19
2022-10-04T16:54:42.877Z,17.08
2022-10-04T16:57:22.856Z,17.04
2022-10-04T16:59:54.103Z,16.99
2022-10-04T17:02:38.025Z,16.94
2022-10-04T17:05:47.189Z,16.88
2022-10-04T17:08:30.020Z,16.81
2022-10-04T17:11:39.167Z,16.75
2022-10-04T17:14:33.632Z,16.68
2022-10-04T17:17:07.338Z,16.62
2022-10-04T17:19:42.385Z,16.59
2022-10-04T17:22:25.191Z,16.57
2022-10-04T17:25:02.414Z,16.52
2022-10-04T17:27:47.194Z,16.48
2022-10-04T17:30:21.775Z,16.43
2022-10-04T17:33:21.787Z,16.38
2022-10-04T17:36:30.969Z,16.34
2022-10-04T17:39:12.343Z,16.32
2022-10-04T17:41:58.071Z,16.31
2022-10-04T17:44:57.647Z,16.30
2022-10-04T17:47:49.850Z,16.25
2022-10-04T17:50:41.034Z,16.16
2022-10-04T17:53:37.454Z,16.09
2022-10-04T17:56:11.541Z,15.98
2022-10-04T17:58:45.605Z,15.87
2022-10-04T18:01:18.655Z,15.86
2022-10-04T18:03:52.372Z,15.81
2022-10-04T18:06:29.898Z,15.83
2022-10-04T18:09:02.924Z,15.80
2022-10-04T18:11:43.547Z,15.79
2022-10-04T18:14:20.662Z,15.81
2022-10-04T18:16:52.493Z,15.77
2022-10-04T18:19:35.961Z,15.79
2022-10-04T18:22:12.503Z,15.82
2022-10-04T18:24:40.258Z,15.84
2022-10-04T18:27:19.460Z,15.77
2022-10-04T18:30:03.988Z,15.64
2022-10-04T18:32:34.915Z,15.57
2022-10-04T18:35:21.743Z,15.53
2022-10-04T18:37:50.734Z,15.55
2022-10-04T18:40:20.700Z,15.59
2022-10-04T18:42:55.251Z,15.62
2022-10-04T18:45:26.483Z,15.65
2022-10-04T18:47:55.757Z,15.63
2022-10-04T18:50:30.338Z,15.60
2022-10-04T18:53:32.403Z,15.63
2022-10-04T18:56:01.827Z,15.58
2022-10-04T18:58:58.998Z,15.57
2022-10-04T19:01:58.035Z,15.51
2022-10-04T19:04:36.887Z,15.51
2022-10-04T19:07:10.223Z,15.47
2022-10-04T19:09:56.678Z,15.48
2022-10-04T19:12:29.424Z,15.47
2022-10-04T19:15:08.793Z,15.48
2022-10-04T19:17:43.143Z,15.49
2022-10-04T19:20:18.968Z,15.51
2022-10-04T19:22:54.509Z,15.45
2022-10-04T19:25:32.586Z,15.38
2022-10-04T19:28:05.517Z,15.39
2022-10-04T19:30:48.273Z,15.40
2022-10-04T19:33:20.409Z,15.35
2022-10-04T19:36:05.883Z,15.30
2022-10-04T19:38:52.353Z,15.28
2022-10-04T19:41:33.629Z,15.26
2022-10-04T19:44:12.295Z,15.24
2022-10-04T19:46:45.147Z,15.24
2022-10-04T19:49:21.542Z,15.20
2022-10-04T19:51:54.459Z,15.20
2022-10-04T19:54:29.314Z,15.18
2022-10-04T19:56:59.026Z,15.17
2022-10-04T19:59:36.452Z,15.16
2022-10-04T20:02:10.427Z,15.09
2022-10-04T20:04:43.516Z,15.02
2022-10-04T20:07:22.403Z,15.03
2022-10-04T20:10:07.393Z,14.77
2022-10-04T20:12:37.039Z,14.76
2022-10-04T20:15:27.524Z,14.83
2022-10-04T20:17:58.094Z,14.86
2022-10-04T20:21:03.358Z,14.72
2022-10-04T20:23:50.573Z,14.60
2022-10-04T20:26:53.812Z,14.67
2022-10-04T20:30:04.541Z,14.57
2022-10-04T20:32:59.404Z,14.60
2022-10-04T20:36:08.265Z,14.65
2022-10-04T20:38:59.396Z,14.67
2022-10-04T20:42:24.012Z,14.77
2022-10-04T20:44:57.335Z,14.68
2022-10-04T20:47:40.229Z,14.63
2022-10-04T20:50:16.440Z,14.85
2022-10-04T20:52:47.212Z,14.68
2022-10-04T20:55:27.120Z,14.61
2022-10-04T20:57:57.080Z,14.42
2022-10-04T21:00:26.885Z,14.23
2022-10-04T21:03:15.458Z,14.02
2022-10-04T21:05:48.738Z,14.04
2022-10-04T21:08:25.060Z,14.15
2022-10-04T21:11:21.354Z,14.17
2022-10-04T21:13:54.541Z,14.21
2022-10-04T21:16:39.348Z,14.26
2022-10-04T21:19:44.084Z,14.27
2022-10-04T21:22:34.103Z,14.29
2022-10-04T21:25:03.117Z,14.21
2022-10-04T21:27:32.638Z,14.07
2022-10-04T21:30:01.568Z,14.11
2022-10-04T21:32:34.327Z,14.12
2022-10-04T21:35:03.517Z,14.01
2022-10-04T21:37:32.832Z,14.06
2022-10-04T21:40:00.449Z,14.03
2022-10-04T21:42:28.054Z,14.00
2022-10-04T21:44:55.629Z,14.00
2022-10-04T21:47:23.288Z,13.97
2022-10-04T21:49:51.762Z,13.96
2022-10-04T21:52:19.407Z,13.97
2022-10-04T21:54:48.436Z,14.03
2022-10-04T21:57:16.023Z,14.05
2022-10-04T21:59:43.624Z,14.06
2022-10-04T22:02:11.269Z,14.01
2022-10-04T22:04:40.076Z,13.98
2022-10-04T22:07:07.659Z,13.97
2022-10-04T22:09:36.004Z,13.98
2022-10-04T22:12:05.245Z,13.96
2022-10-04T22:14:32.868Z,13.95
2022-10-04T22:17:00.602Z,13.89
2022-10-04T22:19:28.201Z,13.94
2022-10-04T22:21:55.819Z,13.96
2022-10-04T22:24:23.688Z,13.81
2022-10-04T22:26:51.503Z,13.81
2022-10-04T22:29:20.778Z,13.86
2022-10-04T22:31:51.349Z,13.80
2022-10-04T22:34:22.529Z,13.79
2022-10-04T22:36:51.944Z,13.80
2022-10-04T22:39:20.886Z,13.80
2022-10-04T22:41:53.176Z,13.78
2022-10-04T22:44:24.339Z,13.85
2022-10-04T22:46:54.177Z,13.88
2022-10-04T22:49:24.670Z,13.93
2022-10-04T22:51:54.623Z,13.94
2022-10-04T22:54:25.170Z,13.88
2022-10-04T22:56:54.277Z,13.94
2022-10-04T22:59:27.971Z,13.91
2022-10-04T23:01:55.679Z,13.82
2022-10-04T23:04:25.832Z,13.75
2022-10-04T23:06:53.981Z,13.70
2022-10-04T23:09:22.025Z,13.77
2022-10-04T23:11:49.954Z,13.75
2022-10-04T23:14:17.547Z,13.66
2022-10-04T23:16:47.347Z,13.75
2022-10-04T23:19:18.669Z,13.66
2022-10-04T23:21:47.534Z,13.59
2022-10-04T23:24:17.418Z,13.44
2022-10-04T23:26:48.736Z,13.39
2022-10-04T23:29:21.999Z,13.45
2022-10-04T23:31:52.625Z,13.39
2022-10-04T23:34:24.846Z,13.24
2022-10-04T23:36:52.734Z,13.36
2022-10-04T23:39:25.845Z,13.52
2022-10-04T23:41:54.972Z,13.56
2022-10-04T23:44:24.727Z,13.56
2022-10-04T23:46:53.641Z,13.50
2022-10-04T23:49:22.574Z,13.50
2022-10-04T23:51:55.805Z,13.50
2022-10-04T23:54:24.473Z,13.42
2022-10-04T23:56:52.459Z,13.53
2022-10-04T23:59:24.606Z,13.49
